sensor_id;sensor_type;location;lat;lon;timestamp;temperature;humidity
22680;DHT22;11507;44.858;10.374;2023-11-22T00:00:10;7.90;99.90
22680;DHT22;11507;44.858;10.374;2023-11-22T00:02:37;7.90;99.90
22680;DHT22;11507;44.858;10.374;2023-11-22T00:05:04;7.90;99.90
22680;DHT22;11507;44.858;10.374;2023-11-22T00:07:31;8.00;99.90
22680;DHT22;11507;44.858;10.374;2023-11-22T00:09:58;7.90;99.90
22680;DHT22;11507;44.858;10.374;2023-11-22T00:12:24;7.90;99.90
22680;DHT22;11507;44.858;10.374;2023-11-22T00:14:51;7.70;99.90
22680;DHT22;11507;44.858;10.374;2023-11-22T00:17:17;7.70;99.90
22680;DHT22;11507;44.858;10.374;2023-11-22T00:19:44;7.60;99.90
22680;DHT22;11507;44.858;10.374;2023-11-22T00:22:11;7.50;99.90
22680;DHT22;11507;44.858;10.374;2023-11-22T00:24:42;7.50;99.90
22680;DHT22;11507;44.858;10.374;2023-11-22T00:27:08;7.60;99.90
22680;DHT22;11507;44.858;10.374;2023-11-22T00:29:36;7.60;99.90
22680;DHT22;11507;44.858;10.374;2023-11-22T00:32:02;7.50;99.90
22680;DHT22;11507;44.858;10.374;2023-11-22T00:34:28;7.50;99.90
22680;DHT22;11507;44.858;10.374;2023-11-22T00:36:54;7.40;99.90
22680;DHT22;11507;44.858;10.374;2023-11-22T00:39:20;7.40;99.90
22680;DHT22;11507;44.858;10.374;2023-11-22T00:41:48;7.30;99.90
22680;DHT22;11507;44.858;10.374;2023-11-22T00:44:14;7.20;99.90
22680;DHT22;11507;44.858;10.374;2023-11-22T00:46:40;7.10;99.90
22680;DHT22;11507;44.858;10.374;2023-11-22T00:49:08;6.90;99.90
22680;DHT22;11507;44.858;10.374;2023-11-22T00:51:36;6.70;99.90
22680;DHT22;11507;44.858;10.374;2023-11-22T00:54:03;6.70;99.90
22680;DHT22;11507;44.858;10.374;2023-11-22T00:56:29;6.70;99.90
22680;DHT22;11507;44.858;10.374;2023-11-22T00:58:55;6.70;99.90
22680;DHT22;11507;44.858;10.374;2023-11-22T01:01:23;6.60;99.90
22680;DHT22;11507;44.858;10.374;2023-11-22T01:03:48;6.70;99.90
22680;DHT22;11507;44.858;10.374;2023-11-22T01:06:15;6.70;99.90
22680;DHT22;11507;44.858;10.374;2023-11-22T01:08:41;6.60;99.90
22680;DHT22;11507;44.858;10.374;2023-11-22T01:11:09;6.60;99.90
22680;DHT22;11507;44.858;10.374;2023-11-22T01:13:34;6.50;99.90
22680;DHT22;11507;44.858;10.374;2023-11-22T01:16:10;6.30;99.90
22680;DHT22;11507;44.858;10.374;2023-11-22T01:18:36;6.30;99.90
22680;DHT22;11507;44.858;10.374;2023-11-22T01:21:03;6.20;99.90
22680;DHT22;11507;44.858;10.374;2023-11-22T01:23:32;6.20;99.90
22680;DHT22;11507;44.858;10.374;2023-11-22T01:25:58;6.20;99.90
22680;DHT22;11507;44.858;10.374;2023-11-22T01:28:25;6.10;99.90
22680;DHT22;11507;44.858;10.374;2023-11-22T01:30:55;6.00;99.90
22680;DHT22;11507;44.858;10.374;2023-11-22T01:33:22;6.00;99.90
22680;DHT22;11507;44.858;10.374;2023-11-22T01:35:48;6.20;99.90
22680;DHT22;11507;44.858;10.374;2023-11-22T01:38:16;6.20;99.90
22680;DHT22;11507;44.858;10.374;2023-11-22T01:40:45;6.30;99.90
22680;DHT22;11507;44.858;10.374;2023-11-22T01:43:17;6.40;99.90
22680;DHT22;11507;44.858;10.374;2023-11-22T01:45:43;6.50;99.90
22680;DHT22;11507;44.858;10.374;2023-11-22T01:48:11;6.50;99.90
22680;DHT22;11507;44.858;10.374;2023-11-22T01:50:42;6.50;99.90
22680;DHT22;11507;44.858;10.374;2023-11-22T01:53:11;6.50;99.90
22680;DHT22;11507;44.858;10.374;2023-11-22T01:55:43;6.40;99.90
22680;DHT22;11507;44.858;10.374;2023-11-22T01:58:10;6.40;99.90
22680;DHT22;11507;44.858;10.374;2023-11-22T02:00:44;6.40;99.90
22680;DHT22;11507;44.858;10.374;2023-11-22T02:03:11;6.30;99.90
22680;DHT22;11507;44.858;10.374;2023-11-22T02:05:40;6.20;99.90
22680;DHT22;11507;44.858;10.374;2023-11-22T02:08:09;6.10;99.90
22680;DHT22;11507;44.858;10.374;2023-11-22T02:10:37;6.00;99.90
22680;DHT22;11507;44.858;10.374;2023-11-22T02:13:04;6.10;99.90
22680;DHT22;11507;44.858;10.374;2023-11-22T02:15:34;6.10;99.90
22680;DHT22;11507;44.858;10.374;2023-11-22T02:18:00;6.10;99.90
22680;DHT22;11507;44.858;10.374;2023-11-22T02:20:27;6.00;99.90
22680;DHT22;11507;44.858;10.374;2023-11-22T02:22:54;5.90;99.90
22680;DHT22;11507;44.858;10.374;2023-11-22T02:25:20;5.80;99.90
22680;DHT22;11507;44.858;10.374;2023-11-22T02:27:46;5.90;99.90
22680;DHT22;11507;44.858;10.374;2023-11-22T02:30:13;5.90;99.90
22680;DHT22;11507;44.858;10.374;2023-11-22T02:32:39;5.90;99.90
22680;DHT22;11507;44.858;10.374;2023-11-22T02:35:06;5.80;99.90
22680;DHT22;11507;44.858;10.374;2023-11-22T02:37:36;5.70;99.90
22680;DHT22;11507;44.858;10.374;2023-11-22T02:40:16;5.60;99.90
22680;DHT22;11507;44.858;10.374;2023-11-22T02:42:49;5.50;99.90
22680;DHT22;11507;44.858;10.374;2023-11-22T02:45:17;5.40;99.90
22680;DHT22;11507;44.858;10.374;2023-11-22T02:47:48;5.30;99.90
22680;DHT22;11507;44.858;10.374;2023-11-22T02:50:16;5.20;99.90
22680;DHT22;11507;44.858;10.374;2023-11-22T02:52:42;5.10;99.90
22680;DHT22;11507;44.858;10.374;2023-11-22T02:55:09;5.00;99.90
22680;DHT22;11507;44.858;10.374;2023-11-22T02:57:39;5.10;99.90
22680;DHT22;11507;44.858;10.374;2023-11-22T03:00:10;5.20;99.90
22680;DHT22;11507;44.858;10.374;2023-11-22T03:02:43;5.40;99.90
22680;DHT22;11507;44.858;10.374;2023-11-22T03:05:09;5.60;99.90
22680;DHT22;11507;44.858;10.374;2023-11-22T03:07:35;5.60;99.90
22680;DHT22;11507;44.858;10.374;2023-11-22T03:10:03;5.60;99.90
22680;DHT22;11507;44.858;10.374;2023-11-22T03:12:29;5.60;99.90
22680;DHT22;11507;44.858;10.374;2023-11-22T03:14:55;5.60;99.90
22680;DHT22;11507;44.858;10.374;2023-11-22T03:17:27;5.60;99.90
22680;DHT22;11507;44.858;10.374;2023-11-22T03:20:00;5.60;99.90
22680;DHT22;11507;44.858;10.374;2023-11-22T03:22:27;5.60;99.90
22680;DHT22;11507;44.858;10.374;2023-11-22T03:24:56;5.60;99.90
22680;DHT22;11507;44.858;10.374;2023-11-22T03:27:22;5.60;99.90
22680;DHT22;11507;44.858;10.374;2023-11-22T03:29:49;5.70;99.90
22680;DHT22;11507;44.858;10.374;2023-11-22T03:32:15;5.70;99.90
22680;DHT22;11507;44.858;10.374;2023-11-22T03:34:41;5.90;99.90
22680;DHT22;11507;44.858;10.374;2023-11-22T03:37:07;5.80;99.90
22680;DHT22;11507;44.858;10.374;2023-11-22T03:39:34;5.70;99.90
22680;DHT22;11507;44.858;10.374;2023-11-22T03:41:59;5.50;99.90
22680;DHT22;11507;44.858;10.374;2023-11-22T03:44:26;5.30;99.90
22680;DHT22;11507;44.858;10.374;2023-11-22T03:46:54;5.20;99.90
22680;DHT22;11507;44.858;10.374;2023-11-22T03:49:22;5.10;99.90
22680;DHT22;11507;44.858;10.374;2023-11-22T03:51:51;5.00;99.90
22680;DHT22;11507;44.858;10.374;2023-11-22T03:54:18;5.00;99.90
22680;DHT22;11507;44.858;10.374;2023-11-22T03:56:45;5.00;99.90
22680;DHT22;11507;44.858;10.374;2023-11-22T03:59:13;4.90;99.90
22680;DHT22;11507;44.858;10.374;2023-11-22T04:01:40;4.90;99.90
22680;DHT22;11507;44.858;10.374;2023-11-22T04:04:07;4.80;99.90
22680;DHT22;11507;44.858;10.374;2023-11-22T04:06:36;4.70;99.90
22680;DHT22;11507;44.858;10.374;2023-11-22T04:09:04;4.60;99.90
22680;DHT22;11507;44.858;10.374;2023-11-22T04:11:31;4.50;99.90
22680;DHT22;11507;44.858;10.374;2023-11-22T04:13:58;4.40;99.90
22680;DHT22;11507;44.858;10.374;2023-11-22T04:16:25;4.40;99.90
22680;DHT22;11507;44.858;10.374;2023-11-22T04:18:52;4.30;99.90
22680;DHT22;11507;44.858;10.374;2023-11-22T04:21:19;4.30;99.90
22680;DHT22;11507;44.858;10.374;2023-11-22T04:23:46;4.30;99.90
22680;DHT22;11507;44.858;10.374;2023-11-22T04:26:14;4.40;99.90
22680;DHT22;11507;44.858;10.374;2023-11-22T04:28:42;4.40;99.90
22680;DHT22;11507;44.858;10.374;2023-11-22T04:31:08;4.40;99.90
22680;DHT22;11507;44.858;10.374;2023-11-22T04:33:35;4.40;99.90
22680;DHT22;11507;44.858;10.374;2023-11-22T04:36:03;4.30;99.90
22680;DHT22;11507;44.858;10.374;2023-11-22T04:38:30;4.30;99.90
22680;DHT22;11507;44.858;10.374;2023-11-22T04:40:57;4.30;99.90
22680;DHT22;11507;44.858;10.374;2023-11-22T04:43:25;4.20;99.90
22680;DHT22;11507;44.858;10.374;2023-11-22T04:45:52;4.20;99.90
22680;DHT22;11507;44.858;10.374;2023-11-22T04:48:19;4.20;99.90
22680;DHT22;11507;44.858;10.374;2023-11-22T04:50:46;4.20;99.90
22680;DHT22;11507;44.858;10.374;2023-11-22T04:53:12;4.10;99.90
22680;DHT22;11507;44.858;10.374;2023-11-22T04:55:39;4.10;99.90
22680;DHT22;11507;44.858;10.374;2023-11-22T04:58:07;4.10;99.90
22680;DHT22;11507;44.858;10.374;2023-11-22T05:00:33;4.10;99.90
22680;DHT22;11507;44.858;10.374;2023-11-22T05:03:00;4.10;99.90
22680;DHT22;11507;44.858;10.374;2023-11-22T05:05:26;4.10;99.90
22680;DHT22;11507;44.858;10.374;2023-11-22T05:07:53;4.20;99.90
22680;DHT22;11507;44.858;10.374;2023-11-22T05:10:20;4.30;99.90
22680;DHT22;11507;44.858;10.374;2023-11-22T05:12:47;4.30;99.90
22680;DHT22;11507;44.858;10.374;2023-11-22T05:15:15;4.30;99.90
22680;DHT22;11507;44.858;10.374;2023-11-22T05:17:43;4.30;99.90
22680;DHT22;11507;44.858;10.374;2023-11-22T05:20:09;4.30;99.90
22680;DHT22;11507;44.858;10.374;2023-11-22T05:22:37;4.20;99.90
22680;DHT22;11507;44.858;10.374;2023-11-22T05:25:05;4.20;99.90
22680;DHT22;11507;44.858;10.374;2023-11-22T05:27:34;4.20;99.90
22680;DHT22;11507;44.858;10.374;2023-11-22T05:30:01;4.10;99.90
22680;DHT22;11507;44.858;10.374;2023-11-22T05:32:28;4.10;99.90
22680;DHT22;11507;44.858;10.374;2023-11-22T05:34:58;4.10;99.90
22680;DHT22;11507;44.858;10.374;2023-11-22T05:37:26;4.00;99.90
22680;DHT22;11507;44.858;10.374;2023-11-22T05:39:53;3.90;99.90
22680;DHT22;11507;44.858;10.374;2023-11-22T05:42:21;4.00;99.90
22680;DHT22;11507;44.858;10.374;2023-11-22T05:44:48;4.00;99.90
22680;DHT22;11507;44.858;10.374;2023-11-22T05:47:17;4.00;99.90
22680;DHT22;11507;44.858;10.374;2023-11-22T05:49:45;3.90;99.90
22680;DHT22;11507;44.858;10.374;2023-11-22T05:52:12;3.90;99.90
22680;DHT22;11507;44.858;10.374;2023-11-22T05:54:38;3.90;99.90
22680;DHT22;11507;44.858;10.374;2023-11-22T05:57:04;3.80;99.90
22680;DHT22;11507;44.858;10.374;2023-11-22T05:59:30;3.80;99.90
22680;DHT22;11507;44.858;10.374;2023-11-22T06:01:56;3.80;99.90
22680;DHT22;11507;44.858;10.374;2023-11-22T06:04:22;3.70;99.90
22680;DHT22;11507;44.858;10.374;2023-11-22T06:06:48;3.70;99.90
22680;DHT22;11507;44.858;10.374;2023-11-22T06:09:14;3.70;99.90
22680;DHT22;11507;44.858;10.374;2023-11-22T06:11:40;3.80;99.90
22680;DHT22;11507;44.858;10.374;2023-11-22T06:14:06;3.90;99.90
22680;DHT22;11507;44.858;10.374;2023-11-22T06:16:32;4.00;99.90
22680;DHT22;11507;44.858;10.374;2023-11-22T06:18:58;4.10;99.90
22680;DHT22;11507;44.858;10.374;2023-11-22T06:21:24;4.00;99.90
22680;DHT22;11507;44.858;10.374;2023-11-22T06:23:53;4.00;99.90
22680;DHT22;11507;44.858;10.374;2023-11-22T06:26:21;3.90;99.90
22680;DHT22;11507;44.858;10.374;2023-11-22T06:28:48;3.90;99.90
22680;DHT22;11507;44.858;10.374;2023-11-22T06:31:15;3.80;99.90
22680;DHT22;11507;44.858;10.374;2023-11-22T06:33:41;3.70;99.90
22680;DHT22;11507;44.858;10.374;2023-11-22T06:36:07;3.70;99.90
22680;DHT22;11507;44.858;10.374;2023-11-22T06:38:37;3.80;99.90
22680;DHT22;11507;44.858;10.374;2023-11-22T06:41:03;3.80;99.90
22680;DHT22;11507;44.858;10.374;2023-11-22T06:43:29;3.80;99.90
22680;DHT22;11507;44.858;10.374;2023-11-22T06:45:55;3.80;99.90
22680;DHT22;11507;44.858;10.374;2023-11-22T06:48:21;3.70;99.90
22680;DHT22;11507;44.858;10.374;2023-11-22T06:50:48;3.70;99.90
22680;DHT22;11507;44.858;10.374;2023-11-22T06:53:14;3.70;99.90
22680;DHT22;11507;44.858;10.374;2023-11-22T06:55:41;3.70;99.90
22680;DHT22;11507;44.858;10.374;2023-11-22T06:58:08;3.70;99.90
22680;DHT22;11507;44.858;10.374;2023-11-22T07:00:35;3.80;99.90
22680;DHT22;11507;44.858;10.374;2023-11-22T07:03:03;3.80;99.90
22680;DHT22;11507;44.858;10.374;2023-11-22T07:05:29;3.90;99.90
22680;DHT22;11507;44.858;10.374;2023-11-22T07:07:56;3.90;99.90
22680;DHT22;11507;44.858;10.374;2023-11-22T07:10:22;3.90;99.90
22680;DHT22;11507;44.858;10.374;2023-11-22T07:12:50;3.90;99.90
22680;DHT22;11507;44.858;10.374;2023-11-22T07:15:17;3.90;99.90
22680;DHT22;11507;44.858;10.374;2023-11-22T07:17:43;4.00;99.90
22680;DHT22;11507;44.858;10.374;2023-11-22T07:20:09;4.00;99.90
22680;DHT22;11507;44.858;10.374;2023-11-22T07:22:42;4.00;99.90
22680;DHT22;11507;44.858;10.374;2023-11-22T07:25:09;4.10;99.90
22680;DHT22;11507;44.858;10.374;2023-11-22T07:27:47;4.10;99.90
22680;DHT22;11507;44.858;10.374;2023-11-22T07:30:14;4.20;99.90
22680;DHT22;11507;44.858;10.374;2023-11-22T07:32:42;4.30;99.90
22680;DHT22;11507;44.858;10.374;2023-11-22T07:35:08;4.30;99.90
22680;DHT22;11507;44.858;10.374;2023-11-22T07:37:35;4.40;99.90
22680;DHT22;11507;44.858;10.374;2023-11-22T07:40:10;4.50;99.90
22680;DHT22;11507;44.858;10.374;2023-11-22T07:42:42;4.60;99.90
22680;DHT22;11507;44.858;10.374;2023-11-22T07:45:10;4.80;99.90
22680;DHT22;11507;44.858;10.374;2023-11-22T07:47:38;5.00;99.90
22680;DHT22;11507;44.858;10.374;2023-11-22T07:50:10;5.10;99.90
22680;DHT22;11507;44.858;10.374;2023-11-22T07:52:40;5.30;99.90
22680;DHT22;11507;44.858;10.374;2023-11-22T07:55:07;5.40;99.90
22680;DHT22;11507;44.858;10.374;2023-11-22T07:57:34;5.50;99.90
22680;DHT22;11507;44.858;10.374;2023-11-22T08:00:01;5.60;99.90
22680;DHT22;11507;44.858;10.374;2023-11-22T08:02:38;5.70;99.90
22680;DHT22;11507;44.858;10.374;2023-11-22T08:05:09;5.90;99.90
22680;DHT22;11507;44.858;10.374;2023-11-22T08:07:36;6.10;99.90
22680;DHT22;11507;44.858;10.374;2023-11-22T08:10:08;6.30;99.90
22680;DHT22;11507;44.858;10.374;2023-11-22T08:12:48;6.40;99.90
22680;DHT22;11507;44.858;10.374;2023-11-22T08:15:17;6.50;99.90
22680;DHT22;11507;44.858;10.374;2023-11-22T08:17:46;6.70;99.90
22680;DHT22;11507;44.858;10.374;2023-11-22T08:22:40;7.00;99.90
22680;DHT22;11507;44.858;10.374;2023-11-22T08:25:10;7.10;99.90
22680;DHT22;11507;44.858;10.374;2023-11-22T08:27:39;7.30;99.90
22680;DHT22;11507;44.858;10.374;2023-11-22T08:30:08;7.40;99.90
22680;DHT22;11507;44.858;10.374;2023-11-22T08:32:42;7.50;99.90
22680;DHT22;11507;44.858;10.374;2023-11-22T08:35:09;7.70;99.90
22680;DHT22;11507;44.858;10.374;2023-11-22T08:37:41;7.90;99.90
22680;DHT22;11507;44.858;10.374;2023-11-22T08:40:08;7.90;99.90
22680;DHT22;11507;44.858;10.374;2023-11-22T08:42:37;8.00;99.90
22680;DHT22;11507;44.858;10.374;2023-11-22T08:45:03;8.10;99.90
22680;DHT22;11507;44.858;10.374;2023-11-22T08:47:29;8.20;99.90
22680;DHT22;11507;44.858;10.374;2023-11-22T08:49:57;8.30;99.90
22680;DHT22;11507;44.858;10.374;2023-11-22T08:52:23;8.40;99.90
22680;DHT22;11507;44.858;10.374;2023-11-22T08:54:50;8.60;99.90
22680;DHT22;11507;44.858;10.374;2023-11-22T08:57:19;8.70;99.90
22680;DHT22;11507;44.858;10.374;2023-11-22T08:59:47;8.80;99.90
22680;DHT22;11507;44.858;10.374;2023-11-22T09:02:17;8.90;99.90
22680;DHT22;11507;44.858;10.374;2023-11-22T09:04:49;9.00;99.90
22680;DHT22;11507;44.858;10.374;2023-11-22T09:07:17;9.20;99.90
22680;DHT22;11507;44.858;10.374;2023-11-22T09:09:47;9.40;99.90
22680;DHT22;11507;44.858;10.374;2023-11-22T09:12:14;9.90;99.90
22680;DHT22;11507;44.858;10.374;2023-11-22T09:14:40;10.30;99.90
22680;DHT22;11507;44.858;10.374;2023-11-22T09:17:10;10.80;99.90
22680;DHT22;11507;44.858;10.374;2023-11-22T09:19:36;11.20;99.90
22680;DHT22;11507;44.858;10.374;2023-11-22T09:22:04;11.40;99.90
22680;DHT22;11507;44.858;10.374;2023-11-22T09:24:32;11.70;99.90
22680;DHT22;11507;44.858;10.374;2023-11-22T09:26:59;12.00;99.90
22680;DHT22;11507;44.858;10.374;2023-11-22T09:29:26;12.50;99.90
22680;DHT22;11507;44.858;10.374;2023-11-22T09:31:52;12.80;99.90
22680;DHT22;11507;44.858;10.374;2023-11-22T09:34:19;12.70;99.90
22680;DHT22;11507;44.858;10.374;2023-11-22T09:36:46;12.80;99.90
22680;DHT22;11507;44.858;10.374;2023-11-22T09:39:13;12.80;99.90
22680;DHT22;11507;44.858;10.374;2023-11-22T09:41:39;12.60;99.90
22680;DHT22;11507;44.858;10.374;2023-11-22T09:44:07;12.80;99.90
22680;DHT22;11507;44.858;10.374;2023-11-22T09:46:36;13.00;99.90
22680;DHT22;11507;44.858;10.374;2023-11-22T09:49:06;13.40;99.90
22680;DHT22;11507;44.858;10.374;2023-11-22T09:51:35;14.00;99.90
22680;DHT22;11507;44.858;10.374;2023-11-22T09:54:05;15.00;99.90
22680;DHT22;11507;44.858;10.374;2023-11-22T09:56:34;15.90;99.90
22680;DHT22;11507;44.858;10.374;2023-11-22T09:59:04;16.90;99.90
22680;DHT22;11507;44.858;10.374;2023-11-22T10:01:33;17.30;99.90
22680;DHT22;11507;44.858;10.374;2023-11-22T10:04:03;18.00;99.90
22680;DHT22;11507;44.858;10.374;2023-11-22T10:06:32;18.40;99.90
22680;DHT22;11507;44.858;10.374;2023-11-22T10:09:04;18.70;99.90
22680;DHT22;11507;44.858;10.374;2023-11-22T10:11:37;19.30;99.90
22680;DHT22;11507;44.858;10.374;2023-11-22T10:14:06;19.70;99.90
22680;DHT22;11507;44.858;10.374;2023-11-22T10:16:32;20.50;98.90
22680;DHT22;11507;44.858;10.374;2023-11-22T10:18:58;21.30;95.90
22680;DHT22;11507;44.858;10.374;2023-11-22T10:21:26;21.60;95.40
22680;DHT22;11507;44.858;10.374;2023-11-22T10:23:56;22.30;93.80
22680;DHT22;11507;44.858;10.374;2023-11-22T10:26:22;22.60;92.70
22680;DHT22;11507;44.858;10.374;2023-11-22T10:28:53;22.50;89.50
22680;DHT22;11507;44.858;10.374;2023-11-22T10:31:20;22.70;90.90
22680;DHT22;11507;44.858;10.374;2023-11-22T10:33:48;23.00;90.30
22680;DHT22;11507;44.858;10.374;2023-11-22T10:36:15;23.50;90.80
22680;DHT22;11507;44.858;10.374;2023-11-22T10:38:45;24.20;89.30
22680;DHT22;11507;44.858;10.374;2023-11-22T10:41:12;24.20;82.00
22680;DHT22;11507;44.858;10.374;2023-11-22T10:43:39;24.20;81.90
22680;DHT22;11507;44.858;10.374;2023-11-22T10:46:08;24.20;80.60
22680;DHT22;11507;44.858;10.374;2023-11-22T10:48:38;24.60;84.00
22680;DHT22;11507;44.858;10.374;2023-11-22T10:51:05;24.90;78.60
22680;DHT22;11507;44.858;10.374;2023-11-22T10:53:36;25.00;75.00
22680;DHT22;11507;44.858;10.374;2023-11-22T10:56:07;24.80;81.60
22680;DHT22;11507;44.858;10.374;2023-11-22T10:58:50;25.00;75.00
22680;DHT22;11507;44.858;10.374;2023-11-22T11:01:24;25.10;76.80
22680;DHT22;11507;44.858;10.374;2023-11-22T11:04:02;25.40;73.70
22680;DHT22;11507;44.858;10.374;2023-11-22T11:06:35;25.40;72.70
22680;DHT22;11507;44.858;10.374;2023-11-22T11:09:04;25.40;73.80
22680;DHT22;11507;44.858;10.374;2023-11-22T11:11:38;25.60;71.50
22680;DHT22;11507;44.858;10.374;2023-11-22T11:14:07;26.40;71.40
22680;DHT22;11507;44.858;10.374;2023-11-22T11:16:40;26.80;67.60
22680;DHT22;11507;44.858;10.374;2023-11-22T11:19:18;27.50;66.30
22680;DHT22;11507;44.858;10.374;2023-11-22T11:21:48;27.80;62.20
22680;DHT22;11507;44.858;10.374;2023-11-22T11:24:17;27.90;59.70
22680;DHT22;11507;44.858;10.374;2023-11-22T11:26:49;28.00;61.80
22680;DHT22;11507;44.858;10.374;2023-11-22T11:29:32;28.70;59.10
22680;DHT22;11507;44.858;10.374;2023-11-22T11:32:04;28.80;55.60
22680;DHT22;11507;44.858;10.374;2023-11-22T11:34:33;29.30;55.50
22680;DHT22;11507;44.858;10.374;2023-11-22T11:37:11;29.70;54.00
22680;DHT22;11507;44.858;10.374;2023-11-22T11:39:42;30.30;55.70
22680;DHT22;11507;44.858;10.374;2023-11-22T11:42:12;30.90;54.30
22680;DHT22;11507;44.858;10.374;2023-11-22T11:45:04;31.30;51.80
22680;DHT22;11507;44.858;10.374;2023-11-22T11:47:38;31.60;50.90
22680;DHT22;11507;44.858;10.374;2023-11-22T11:50:12;31.70;52.80
22680;DHT22;11507;44.858;10.374;2023-11-22T11:52:42;31.90;50.50
22680;DHT22;11507;44.858;10.374;2023-11-22T11:55:10;32.40;51.10
22680;DHT22;11507;44.858;10.374;2023-11-22T11:57:38;32.80;49.40
22680;DHT22;11507;44.858;10.374;2023-11-22T12:00:10;33.40;47.60
22680;DHT22;11507;44.858;10.374;2023-11-22T12:02:43;33.70;47.10
22680;DHT22;11507;44.858;10.374;2023-11-22T12:05:18;34.10;46.90
22680;DHT22;11507;44.858;10.374;2023-11-22T12:07:48;34.00;43.00
22680;DHT22;11507;44.858;10.374;2023-11-22T12:10:16;34.30;42.20
22680;DHT22;11507;44.858;10.374;2023-11-22T12:12:46;34.30;42.90
22680;DHT22;11507;44.858;10.374;2023-11-22T12:15:17;34.50;40.90
22680;DHT22;11507;44.858;10.374;2023-11-22T12:17:49;33.80;39.80
22680;DHT22;11507;44.858;10.374;2023-11-22T12:20:25;33.90;42.20
22680;DHT22;11507;44.858;10.374;2023-11-22T12:23:04;34.40;42.60
22680;DHT22;11507;44.858;10.374;2023-11-22T12:25:40;34.40;41.50
22680;DHT22;11507;44.858;10.374;2023-11-22T12:28:12;34.40;39.60
22680;DHT22;11507;44.858;10.374;2023-11-22T12:30:41;34.90;40.90
22680;DHT22;11507;44.858;10.374;2023-11-22T12:33:11;35.00;39.60
22680;DHT22;11507;44.858;10.374;2023-11-22T12:35:48;35.10;41.50
22680;DHT22;11507;44.858;10.374;2023-11-22T12:38:18;35.30;41.70
22680;DHT22;11507;44.858;10.374;2023-11-22T12:40:46;35.80;40.20
22680;DHT22;11507;44.858;10.374;2023-11-22T12:43:15;35.70;40.40
22680;DHT22;11507;44.858;10.374;2023-11-22T12:45:43;35.70;39.20
22680;DHT22;11507;44.858;10.374;2023-11-22T12:48:32;36.10;38.90
22680;DHT22;11507;44.858;10.374;2023-11-22T12:51:00;35.90;38.10
22680;DHT22;11507;44.858;10.374;2023-11-22T12:53:28;35.80;38.40
22680;DHT22;11507;44.858;10.374;2023-11-22T12:55:58;36.00;37.80
22680;DHT22;11507;44.858;10.374;2023-11-22T12:58:28;36.10;38.50
22680;DHT22;11507;44.858;10.374;2023-11-22T13:01:01;36.20;38.20
22680;DHT22;11507;44.858;10.374;2023-11-22T13:03:32;36.60;36.80
22680;DHT22;11507;44.858;10.374;2023-11-22T13:05:59;36.20;36.50
22680;DHT22;11507;44.858;10.374;2023-11-22T13:08:26;36.30;36.90
22680;DHT22;11507;44.858;10.374;2023-11-22T13:10:57;36.10;37.10
22680;DHT22;11507;44.858;10.374;2023-11-22T13:13:25;36.00;36.80
22680;DHT22;11507;44.858;10.374;2023-11-22T13:15:54;35.80;37.20
22680;DHT22;11507;44.858;10.374;2023-11-22T13:18:21;35.70;37.30
22680;DHT22;11507;44.858;10.374;2023-11-22T13:20:53;35.50;37.70
22680;DHT22;11507;44.858;10.374;2023-11-22T13:23:27;35.60;37.50
22680;DHT22;11507;44.858;10.374;2023-11-22T13:25:55;35.80;36.50
22680;DHT22;11507;44.858;10.374;2023-11-22T13:28:21;35.90;36.60
22680;DHT22;11507;44.858;10.374;2023-11-22T13:30:49;35.80;36.50
22680;DHT22;11507;44.858;10.374;2023-11-22T13:33:18;35.80;37.20
22680;DHT22;11507;44.858;10.374;2023-11-22T13:35:45;35.80;36.80
22680;DHT22;11507;44.858;10.374;2023-11-22T13:38:13;35.30;35.70
22680;DHT22;11507;44.858;10.374;2023-11-22T13:40:41;35.30;36.90
22680;DHT22;11507;44.858;10.374;2023-11-22T13:43:11;35.10;37.70
22680;DHT22;11507;44.858;10.374;2023-11-22T13:45:40;35.10;37.00
22680;DHT22;11507;44.858;10.374;2023-11-22T13:48:08;33.70;36.80
22680;DHT22;11507;44.858;10.374;2023-11-22T13:50:36;32.00;39.00
22680;DHT22;11507;44.858;10.374;2023-11-22T13:53:04;30.20;41.10
22680;DHT22;11507;44.858;10.374;2023-11-22T13:55:31;28.40;43.00
22680;DHT22;11507;44.858;10.374;2023-11-22T13:57:59;26.70;45.50
22680;DHT22;11507;44.858;10.374;2023-11-22T14:00:27;25.40;47.80
22680;DHT22;11507;44.858;10.374;2023-11-22T14:02:59;24.20;49.90
22680;DHT22;11507;44.858;10.374;2023-11-22T14:05:34;23.40;52.30
22680;DHT22;11507;44.858;10.374;2023-11-22T14:08:02;22.60;54.70
22680;DHT22;11507;44.858;10.374;2023-11-22T14:10:29;21.90;55.80
22680;DHT22;11507;44.858;10.374;2023-11-22T14:12:56;21.20;57.20
22680;DHT22;11507;44.858;10.374;2023-11-22T14:15:26;20.70;58.50
22680;DHT22;11507;44.858;10.374;2023-11-22T14:17:56;19.90;60.30
22680;DHT22;11507;44.858;10.374;2023-11-22T14:20:23;19.40;62.90
22680;DHT22;11507;44.858;10.374;2023-11-22T14:22:52;19.00;64.10
22680;DHT22;11507;44.858;10.374;2023-11-22T14:25:20;18.70;65.80
22680;DHT22;11507;44.858;10.374;2023-11-22T14:27:47;18.40;66.70
22680;DHT22;11507;44.858;10.374;2023-11-22T14:30:20;18.10;67.90
22680;DHT22;11507;44.858;10.374;2023-11-22T14:32:47;17.80;69.20
22680;DHT22;11507;44.858;10.374;2023-11-22T14:35:14;17.60;70.90
22680;DHT22;11507;44.858;10.374;2023-11-22T14:37:43;17.30;73.50
22680;DHT22;11507;44.858;10.374;2023-11-22T14:40:17;17.00;76.50
22680;DHT22;11507;44.858;10.374;2023-11-22T14:42:47;16.80;78.80
22680;DHT22;11507;44.858;10.374;2023-11-22T14:45:20;16.50;80.00
22680;DHT22;11507;44.858;10.374;2023-11-22T14:47:49;16.30;82.10
22680;DHT22;11507;44.858;10.374;2023-11-22T14:50:18;16.10;84.00
22680;DHT22;11507;44.858;10.374;2023-11-22T14:52:46;15.90;85.80
22680;DHT22;11507;44.858;10.374;2023-11-22T14:55:15;15.70;86.60
22680;DHT22;11507;44.858;10.374;2023-11-22T14:57:44;15.60;87.70
22680;DHT22;11507;44.858;10.374;2023-11-22T15:00:12;15.40;89.70
22680;DHT22;11507;44.858;10.374;2023-11-22T15:02:42;15.20;91.40
22680;DHT22;11507;44.858;10.374;2023-11-22T15:05:09;15.00;92.40
22680;DHT22;11507;44.858;10.374;2023-11-22T15:07:36;14.80;94.00
22680;DHT22;11507;44.858;10.374;2023-11-22T15:10:05;14.60;95.10
22680;DHT22;11507;44.858;10.374;2023-11-22T15:12:33;14.40;96.20
22680;DHT22;11507;44.858;10.374;2023-11-22T15:15:04;14.30;97.70
22680;DHT22;11507;44.858;10.374;2023-11-22T15:17:37;14.10;99.30
22680;DHT22;11507;44.858;10.374;2023-11-22T15:20:08;13.90;99.80
22680;DHT22;11507;44.858;10.374;2023-11-22T15:22:44;13.70;99.90
22680;DHT22;11507;44.858;10.374;2023-11-22T15:25:12;13.60;99.90
22680;DHT22;11507;44.858;10.374;2023-11-22T15:27:41;13.50;99.90
22680;DHT22;11507;44.858;10.374;2023-11-22T15:30:08;13.30;99.90
22680;DHT22;11507;44.858;10.374;2023-11-22T15:32:35;13.10;99.90
22680;DHT22;11507;44.858;10.374;2023-11-22T15:35:02;12.90;99.90